createdAt,value
2022-08-28T00:01:41.426Z,25.75
2022-08-28T00:04:11.156Z,25.73
2022-08-28T00:06:40.766Z,25.75
2022-08-28T00:09:11.515Z,25.72
2022-08-28T00:11:41.291Z,25.71
2022-08-28T00:14:11.310Z,25.72
2022-08-28T00:16:41.081Z,25.73
2022-08-28T00:19:11.596Z,25.76
2022-08-28T00:21:41.112Z,25.75
2022-08-28T00:24:11.751Z,25.75
2022-08-28T00:27:00.838Z,25.72
2022-08-28T00:29:36.942Z,25.72
2022-08-28T00:32:07.168Z,25.74
2022-08-28T00:34:36.673Z,25.75
2022-08-28T00:37:08.054Z,25.74
2022-08-28T00:39:37.605Z,25.75
2022-08-28T00:42:07.673Z,25.72
2022-08-28T00:44:37.489Z,25.69
2022-08-28T00:47:07.718Z,25.68
2022-08-28T00:49:39.222Z,25.70
2022-08-28T00:52:12.708Z,25.71
2022-08-28T00:54:50.530Z,25.71
2022-08-28T00:57:17.872Z,25.72
2022-08-28T00:59:47.368Z,25.72
2022-08-28T01:02:18.725Z,25.67
2022-08-28T01:04:48.369Z,25.65
2022-08-28T01:07:18.167Z,25.67
2022-08-28T01:09:49.234Z,25.68
2022-08-28T01:12:21.544Z,25.69
2022-08-28T01:14:51.557Z,25.70
2022-08-28T01:17:21.313Z,25.70
2022-08-28T01:19:55.456Z,25.69
2022-08-28T01:22:40.043Z,25.64
2022-08-28T01:25:12.158Z,25.64
2022-08-28T01:27:42.745Z,25.67
2022-08-28T01:30:17.966Z,25.67
2022-08-28T01:32:50.407Z,25.68
2022-08-28T01:35:22.308Z,25.68
2022-08-28T01:37:51.842Z,25.65
2022-08-28T01:40:23.867Z,25.58
2022-08-28T01:42:53.512Z,25.59
2022-08-28T01:45:26.894Z,25.62
2022-08-28T01:47:58.647Z,25.64
2022-08-28T01:50:29.027Z,25.63
2022-08-28T01:52:59.889Z,25.64
2022-08-28T01:55:30.077Z,25.63
2022-08-28T01:58:00.149Z,25.57
2022-08-28T02:00:31.148Z,25.55
2022-08-28T02:03:01.539Z,25.57
2022-08-28T02:05:33.646Z,25.58
2022-08-28T02:08:09.536Z,25.61
2022-08-28T02:10:40.040Z,25.61
2022-08-28T02:13:09.758Z,25.62
2022-08-28T02:15:39.652Z,25.62
2022-08-28T02:18:11.099Z,25.61
2022-08-28T02:20:42.356Z,25.62
2022-08-28T02:23:12.293Z,25.61
2022-08-28T02:25:43.899Z,25.62
2022-08-28T02:28:13.854Z,25.63
2022-08-28T02:30:49.108Z,25.63
2022-08-28T02:33:18.946Z,25.60
2022-08-28T02:35:48.570Z,25.55
2022-08-28T02:41:39.011Z,25.56
2022-08-28T02:44:08.597Z,25.58
2022-08-28T02:46:41.076Z,25.58
2022-08-28T02:49:14.007Z,25.59
2022-08-28T02:51:46.738Z,25.59
2022-08-28T02:54:16.632Z,25.59
2022-08-28T02:56:47.952Z,25.60
2022-08-28T02:59:30.367Z,25.60
2022-08-28T03:02:04.622Z,25.60
2022-08-28T03:05:04.807Z,25.54
2022-08-28T03:07:26.664Z,25.61
2022-08-28T03:10:01.614Z,25.61
2022-08-28T03:12:32.090Z,25.59
2022-08-28T03:15:09.985Z,25.62
2022-08-28T03:17:39.735Z,25.63
2022-08-28T03:20:14.600Z,25.63
2022-08-28T03:23:01.385Z,25.64
2022-08-28T03:25:31.160Z,25.64
2022-08-28T03:28:10.110Z,25.67
2022-08-28T03:30:58.645Z,25.67
2022-08-28T03:33:18.865Z,25.68
2022-08-28T03:35:51.469Z,25.69
2022-08-28T03:38:33.412Z,25.70
2022-08-28T03:41:03.103Z,25.71
2022-08-28T03:43:32.658Z,25.72
2022-08-28T03:46:03.870Z,25.72
2022-08-28T03:48:38.096Z,25.74
2022-08-28T03:51:10.255Z,25.75
2022-08-28T03:53:41.306Z,25.77
2022-08-28T03:56:14.899Z,25.76
2022-08-28T03:58:44.931Z,25.79
2022-08-28T04:01:19.305Z,25.79
2022-08-28T04:03:49.061Z,25.80
2022-08-28T04:06:18.998Z,25.81
2022-08-28T04:08:49.104Z,25.83
2022-08-28T04:11:19.313Z,25.84
2022-08-28T04:16:32.744Z,25.86
2022-08-28T04:19:04.943Z,25.88
2022-08-28T04:21:38.400Z,25.85
2022-08-28T04:24:09.863Z,25.87
2022-08-28T04:26:39.261Z,25.89
2022-08-28T04:29:10.518Z,25.91
2022-08-28T04:31:40.328Z,25.91
2022-08-28T04:34:19.803Z,25.92
2022-08-28T04:36:51.059Z,25.94
2022-08-28T04:39:20.962Z,25.95
2022-08-28T04:41:56.648Z,25.95
2022-08-28T04:44:27.247Z,25.96
2022-08-28T04:46:58.929Z,25.91
2022-08-28T04:49:44.377Z,25.92
2022-08-28T04:52:14.170Z,25.96
2022-08-28T04:54:43.975Z,25.97
2022-08-28T04:57:21.994Z,25.98
2022-08-28T04:59:51.545Z,25.99
2022-08-28T05:02:26.256Z,26.00
2022-08-28T05:04:58.968Z,26.00
2022-08-28T05:07:30.251Z,26.02
2022-08-28T05:10:00.648Z,25.92
2022-08-28T05:12:32.304Z,26.01
2022-08-28T05:15:04.770Z,26.01
2022-08-28T05:17:37.677Z,26.02
2022-08-28T05:20:07.901Z,26.04
2022-08-28T05:22:37.720Z,26.04
2022-08-28T05:25:13.251Z,26.05
2022-08-28T05:27:47.302Z,26.06
2022-08-28T05:30:18.721Z,26.06
2022-08-28T05:32:50.041Z,26.05
2022-08-28T05:35:21.009Z,26.06
2022-08-28T05:37:51.129Z,26.06
2022-08-28T05:40:22.930Z,26.07
2022-08-28T05:42:57.089Z,26.08
2022-08-28T05:45:26.566Z,26.08
2022-08-28T05:47:57.058Z,26.10
2022-08-28T05:50:36.186Z,26.11
2022-08-28T05:53:07.860Z,26.07
2022-08-28T05:55:37.757Z,26.06
2022-08-28T05:58:08.967Z,26.06
2022-08-28T06:00:40.898Z,26.08
2022-08-28T06:03:10.697Z,26.09
2022-08-28T06:05:40.737Z,26.11
2022-08-28T06:08:10.751Z,26.11
2022-08-28T06:10:51.573Z,26.12
2022-08-28T06:13:21.166Z,26.13
2022-08-28T06:16:02.746Z,26.13
2022-08-28T06:18:39.189Z,26.07
2022-08-28T06:21:10.509Z,26.09
2022-08-28T06:23:56.635Z,26.11
2022-08-28T06:26:28.188Z,26.13
2022-08-28T06:29:15.385Z,26.05
2022-08-28T06:31:44.346Z,26.13
2022-08-28T06:34:14.609Z,26.14
2022-08-28T06:36:44.978Z,26.15
2022-08-28T06:39:18.723Z,26.16
2022-08-28T06:41:53.572Z,26.15
2022-08-28T06:44:33.096Z,26.12
2022-08-28T06:47:04.153Z,26.13
2022-08-28T06:49:37.284Z,26.13
2022-08-28T06:52:16.989Z,26.13
2022-08-28T06:54:55.593Z,26.14
2022-08-28T06:57:19.895Z,26.15
2022-08-28T06:59:49.883Z,26.16
2022-08-28T07:02:19.556Z,26.17
2022-08-28T07:04:54.376Z,26.16
2022-08-28T07:07:31.545Z,26.18
2022-08-28T07:10:05.577Z,26.13
2022-08-28T07:12:38.295Z,26.13
2022-08-28T07:15:08.853Z,26.15
2022-08-28T07:17:38.904Z,26.15
2022-08-28T07:20:09.409Z,26.15
2022-08-28T07:22:40.794Z,26.16
2022-08-28T07:25:11.755Z,26.16
2022-08-28T07:27:41.311Z,26.17
2022-08-28T07:30:13.255Z,26.17
2022-08-28T07:32:43.815Z,26.19
2022-08-28T07:35:13.890Z,26.18
2022-08-28T07:37:43.377Z,26.16
2022-08-28T07:40:13.728Z,26.13
2022-08-28T07:43:01.070Z,26.15
2022-08-28T07:45:31.604Z,26.17
2022-08-28T07:48:01.556Z,26.16
2022-08-28T07:50:32.461Z,26.17
2022-08-28T07:53:01.988Z,26.16
2022-08-28T07:55:37.833Z,26.18
2022-08-28T07:58:15.651Z,26.19
2022-08-28T08:00:55.916Z,26.19
2022-08-28T08:03:30.489Z,26.19
2022-08-28T08:06:04.555Z,26.18
2022-08-28T08:08:34.944Z,26.15
2022-08-28T08:11:16.634Z,26.16
2022-08-28T08:14:00.376Z,26.16
2022-08-28T08:16:25.599Z,26.18
2022-08-28T08:18:55.884Z,26.17
2022-08-28T08:21:30.417Z,26.18
2022-08-28T08:24:02.850Z,26.18
2022-08-28T08:26:40.861Z,26.17
2022-08-28T08:29:14.227Z,26.19
2022-08-28T08:31:44.145Z,26.20
2022-08-28T08:34:17.054Z,26.19
2022-08-28T08:36:47.141Z,26.14
2022-08-28T08:39:17.426Z,26.16
2022-08-28T08:41:57.952Z,26.17
2022-08-28T08:44:49.082Z,26.17
2022-08-28T08:47:46.083Z,26.16
2022-08-28T08:50:24.315Z,26.19
2022-08-28T08:53:17.937Z,26.18
2022-08-28T08:55:51.105Z,26.19
2022-08-28T08:58:38.997Z,26.20
2022-08-28T09:02:00.703Z,26.20
2022-08-28T09:04:26.893Z,26.20
2022-08-28T09:07:07.223Z,26.21
2022-08-28T09:09:40.614Z,26.16
2022-08-28T09:12:17.923Z,26.16
2022-08-28T09:14:53.331Z,26.16
2022-08-28T09:17:25.222Z,26.17
2022-08-28T09:19:55.380Z,26.17
2022-08-28T09:22:31.865Z,26.19
2022-08-28T09:25:04.845Z,26.18
2022-08-28T09:27:35.985Z,26.18
2022-08-28T09:30:14.192Z,26.19
2022-08-28T09:32:51.484Z,26.19
2022-08-28T09:35:45.044Z,26.20
2022-08-28T09:38:29.407Z,26.20
2022-08-28T09:44:24.275Z,26.21
2022-08-28T09:46:53.849Z,26.16
2022-08-28T09:49:39.623Z,26.18
2022-08-28T09:52:12.280Z,26.18
2022-08-28T09:54:42.206Z,26.18
2022-08-28T09:57:11.996Z,26.18
2022-08-28T09:59:44.241Z,26.18
2022-08-28T10:02:26.096Z,26.19
2022-08-28T10:05:20.746Z,26.19
2022-08-28T10:07:56.598Z,26.19
2022-08-28T10:10:32.013Z,26.20
2022-08-28T10:13:26.074Z,26.20
2022-08-28T10:16:20.940Z,26.19
2022-08-28T10:18:54.336Z,26.21
2022-08-28T10:21:38.778Z,26.18
2022-08-28T10:24:27.078Z,26.19
2022-08-28T10:27:02.966Z,26.18
2022-08-28T10:29:46.015Z,26.19
2022-08-28T10:32:37.605Z,26.18
2022-08-28T10:35:18.589Z,26.20
2022-08-28T10:38:07.982Z,26.19
2022-08-28T10:40:51.478Z,26.20
2022-08-28T10:43:58.120Z,26.20
2022-08-28T10:46:39.876Z,26.20
2022-08-28T10:49:12.630Z,26.20
2022-08-28T10:51:57.226Z,26.21
2022-08-28T10:54:47.574Z,26.20
2022-08-28T10:57:39.910Z,26.21
2022-08-28T11:00:16.962Z,26.21
2022-08-28T11:02:57.886Z,26.21
2022-08-28T11:05:34.042Z,26.18
2022-08-28T11:08:06.080Z,26.16
2022-08-28T11:10:42.031Z,26.18
2022-08-28T11:13:16.130Z,26.18
2022-08-28T11:15:51.076Z,26.18
2022-08-28T11:18:41.586Z,26.19
2022-08-28T11:21:26.988Z,26.19
2022-08-28T11:24:16.374Z,26.19
2022-08-28T11:27:08.492Z,26.20
2022-08-28T11:30:27.967Z,26.20
2022-08-28T11:35:45.791Z,26.19
2022-08-28T11:38:19.989Z,26.21
2022-08-28T11:40:54.077Z,26.21
2022-08-28T11:43:27.262Z,26.22
2022-08-28T11:46:00.722Z,26.21
2022-08-28T11:48:40.901Z,26.21
2022-08-28T11:51:15.978Z,26.21
2022-08-28T11:54:15.332Z,26.22
2022-08-28T11:57:07.452Z,26.21
2022-08-28T11:59:55.153Z,26.23
2022-08-28T12:02:45.936Z,26.21
2022-08-28T12:05:18.499Z,26.16
2022-08-28T12:07:49.403Z,26.18
2022-08-28T12:10:27.991Z,26.19
2022-08-28T12:13:02.709Z,26.18
2022-08-28T12:15:35.286Z,26.19
2022-08-28T12:18:09.833Z,26.18
2022-08-28T12:20:51.076Z,26.20
2022-08-28T12:23:38.660Z,26.20
2022-08-28T12:26:26.318Z,26.20
2022-08-28T12:28:58.275Z,26.21
2022-08-28T12:32:00.888Z,26.21
2022-08-28T12:34:46.281Z,26.20
2022-08-28T12:37:39.702Z,26.21
2022-08-28T12:40:10.886Z,26.21
2022-08-28T12:42:43.553Z,26.21
2022-08-28T12:45:15.020Z,26.22
2022-08-28T12:47:45.175Z,26.22
2022-08-28T12:50:26.393Z,26.23
2022-08-28T12:52:58.618Z,26.22
2022-08-28T12:55:29.248Z,26.22
2022-08-28T12:57:59.362Z,26.22
2022-08-28T13:00:33.528Z,26.20
2022-08-28T13:03:03.151Z,26.19
2022-08-28T13:05:43.338Z,26.12
2022-08-28T13:08:13.507Z,26.01
2022-08-28T13:10:45.056Z,25.86
2022-08-28T13:13:32.336Z,25.70
2022-08-28T13:16:12.436Z,25.75
2022-08-28T13:19:08.644Z,25.77
2022-08-28T13:21:40.299Z,25.65
2022-08-28T13:24:27.912Z,25.53
2022-08-28T13:27:15.730Z,25.56
2022-08-28T13:30:03.758Z,25.62
2022-08-28T13:32:37.834Z,25.65
2022-08-28T13:35:25.286Z,25.51
2022-08-28T13:37:59.310Z,25.49
2022-08-28T13:43:07.935Z,25.55
2022-08-28T13:45:43.156Z,25.60
2022-08-28T13:48:14.201Z,25.55
2022-08-28T13:50:46.708Z,25.51
2022-08-28T13:53:20.016Z,25.54
2022-08-28T13:55:49.509Z,25.57
2022-08-28T13:58:20.179Z,25.59
2022-08-28T14:00:50.994Z,25.60
2022-08-28T14:03:39.979Z,25.52
2022-08-28T14:06:14.325Z,25.53
2022-08-28T14:08:44.835Z,25.56
2022-08-28T14:11:14.788Z,25.57
2022-08-28T14:13:47.369Z,25.58
2022-08-28T14:16:17.715Z,25.54
2022-08-28T14:18:47.501Z,25.48
2022-08-28T14:21:17.536Z,25.50
2022-08-28T14:23:47.592Z,25.52
2022-08-28T14:26:17.184Z,25.54
2022-08-28T14:28:47.142Z,25.55
2022-08-28T14:31:16.927Z,25.46
2022-08-28T14:33:47.055Z,25.46
2022-08-28T14:36:18.638Z,25.49
2022-08-28T14:39:05.354Z,25.52
2022-08-28T14:41:43.658Z,25.54
2022-08-28T14:44:13.223Z,25.54
2022-08-28T14:46:44.878Z,25.46
2022-08-28T14:52:31.599Z,25.49
2022-08-28T14:55:06.790Z,25.51
2022-08-28T14:57:53.525Z,25.52
2022-08-28T15:00:33.945Z,25.46
2022-08-28T15:03:19.250Z,25.47
2022-08-28T15:05:52.978Z,25.48
2022-08-28T15:08:22.594Z,25.50
2022-08-28T15:11:09.099Z,25.50
2022-08-28T15:13:42.790Z,25.46
2022-08-28T15:16:16.281Z,25.42
2022-08-28T15:19:04.507Z,25.45
2022-08-28T15:21:56.049Z,25.46
2022-08-28T15:24:31.049Z,25.48
2022-08-28T15:27:02.293Z,25.49
2022-08-28T15:29:33.060Z,25.42
2022-08-28T15:32:04.359Z,25.37
2022-08-28T15:34:34.143Z,25.37
2022-08-28T15:37:03.641Z,25.40
2022-08-28T15:39:48.734Z,25.42
2022-08-28T15:42:18.640Z,25.45
2022-08-28T15:44:51.045Z,25.46
2022-08-28T15:47:43.202Z,25.38
2022-08-28T15:50:17.387Z,25.36
2022-08-28T15:52:49.126Z,25.39
2022-08-28T15:55:18.954Z,25.40
2022-08-28T15:57:50.727Z,25.42
2022-08-28T16:00:21.668Z,25.42
2022-08-28T16:02:51.188Z,25.41
2022-08-28T16:05:21.088Z,25.38
2022-08-28T16:08:00.332Z,25.40
2022-08-28T16:10:30.922Z,25.41
2022-08-28T16:13:01.812Z,25.44
2022-08-28T16:15:31.896Z,25.43
2022-08-28T16:18:02.157Z,25.38
2022-08-28T16:20:31.906Z,25.38
2022-08-28T16:23:09.711Z,25.39
2022-08-28T16:25:41.992Z,25.42
2022-08-28T16:28:11.620Z,25.45
2022-08-28T16:30:43.963Z,25.44
2022-08-28T16:33:13.199Z,25.41
2022-08-28T16:35:47.934Z,25.43
2022-08-28T16:38:15.287Z,25.45
2022-08-28T16:40:48.648Z,25.46
2022-08-28T16:43:18.508Z,25.46
2022-08-28T16:45:48.217Z,25.45
2022-08-28T16:48:17.762Z,25.46
2022-08-28T16:50:47.426Z,25.46
2022-08-28T16:53:19.979Z,25.48
2022-08-28T16:55:48.308Z,25.48
2022-08-28T16:58:18.413Z,25.46
2022-08-28T17:00:52.878Z,25.38
2022-08-28T17:03:24.314Z,25.37
2022-08-28T17:05:50.810Z,25.38
2022-08-28T17:08:20.590Z,25.40
2022-08-28T17:10:50.204Z,25.43
2022-08-28T17:13:19.957Z,25.44
2022-08-28T17:15:49.508Z,25.44
2022-08-28T17:18:20.674Z,25.39
2022-08-28T17:21:13.822Z,25.40
2022-08-28T17:23:43.526Z,25.42
2022-08-28T17:26:13.311Z,25.45
2022-08-28T17:28:44.297Z,25.45
2022-08-28T17:31:14.564Z,25.43
2022-08-28T17:33:44.958Z,25.41
2022-08-28T17:36:25.623Z,25.40
2022-08-28T17:38:47.189Z,25.43
2022-08-28T17:41:16.781Z,25.45
2022-08-28T17:43:46.472Z,25.46
2022-08-28T17:46:16.054Z,25.43
2022-08-28T17:48:47.904Z,25.43
2022-08-28T17:51:17.671Z,25.46
2022-08-28T17:53:49.034Z,25.47
2022-08-28T17:56:18.733Z,25.46
2022-08-28T17:58:50.149Z,25.47
2022-08-28T18:01:23.685Z,25.44
2022-08-28T18:03:55.395Z,25.46
2022-08-28T18:06:25.878Z,25.48
2022-08-28T18:08:55.409Z,25.48
2022-08-28T18:11:25.180Z,25.48
2022-08-28T18:13:54.894Z,25.48
2022-08-28T18:16:30.333Z,25.42
2022-08-28T18:18:56.088Z,25.42
2022-08-28T18:21:25.648Z,25.43
2022-08-28T18:26:51.432Z,25.46
2022-08-28T18:29:21.066Z,25.46
2022-08-28T18:31:50.563Z,25.47
2022-08-28T18:34:20.076Z,25.46
2022-08-28T18:36:49.844Z,25.44
2022-08-28T18:39:29.237Z,25.41
2022-08-28T18:41:51.045Z,25.42
2022-08-28T18:44:24.162Z,25.43
2022-08-28T18:46:52.254Z,25.43
2022-08-28T18:49:22.040Z,25.43
2022-08-28T18:51:51.585Z,25.45
2022-08-28T18:54:21.226Z,25.45
2022-08-28T18:56:53.023Z,25.39
2022-08-28T18:59:23.355Z,25.40
2022-08-28T19:01:52.969Z,25.40
2022-08-28T19:04:22.794Z,25.41
2022-08-28T19:06:52.430Z,25.41
2022-08-28T19:09:22.245Z,25.43
2022-08-28T19:11:51.862Z,25.43
2022-08-28T19:14:21.410Z,25.42
2022-08-28T19:16:51.301Z,25.28
2022-08-28T19:19:20.808Z,25.37
2022-08-28T19:21:50.943Z,25.38
2022-08-28T19:24:22.001Z,25.39
2022-08-28T19:26:51.502Z,25.40
2022-08-28T19:29:21.048Z,25.41
2022-08-28T19:31:57.842Z,25.40
2022-08-28T19:34:27.741Z,25.35
2022-08-28T19:36:57.577Z,25.35
2022-08-28T19:39:28.075Z,25.36
2022-08-28T19:41:57.669Z,25.38
2022-08-28T19:44:27.338Z,25.38
2022-08-28T19:46:57.223Z,25.38
2022-08-28T19:49:27.257Z,25.40
2022-08-28T19:51:57.080Z,25.40
2022-08-28T19:54:26.671Z,25.40
2022-08-28T19:56:56.316Z,25.41
2022-08-28T19:59:27.248Z,25.43
2022-08-28T20:01:57.078Z,25.42
2022-08-28T20:04:26.711Z,25.39
2022-08-28T20:07:09.317Z,25.37
2022-08-28T20:09:35.820Z,25.38
2022-08-28T20:12:05.735Z,25.40
2022-08-28T20:14:35.799Z,25.41
2022-08-28T20:17:06.028Z,25.42
2022-08-28T20:19:35.542Z,25.42
2022-08-28T20:22:07.384Z,25.43
2022-08-28T20:24:37.633Z,25.43
2022-08-28T20:27:07.516Z,25.42
2022-08-28T20:29:37.288Z,25.43
2022-08-28T20:32:07.284Z,25.43
2022-08-28T20:34:39.452Z,25.43
2022-08-28T20:37:08.405Z,25.44
2022-08-28T20:39:39.487Z,25.45
2022-08-28T20:42:10.035Z,25.43
2022-08-28T20:44:39.816Z,25.45
2022-08-28T20:47:09.456Z,25.44
2022-08-28T20:49:41.317Z,25.39
2022-08-28T20:52:14.321Z,25.37
2022-08-28T20:54:44.513Z,25.39
2022-08-28T20:57:16.697Z,25.40
2022-08-28T20:59:46.737Z,25.41
2022-08-28T21:02:18.830Z,25.42
2022-08-28T21:04:48.468Z,25.44
2022-08-28T21:07:18.924Z,25.45
2022-08-28T21:10:05.939Z,25.43
2022-08-28T21:12:20.912Z,25.43
2022-08-28T21:14:51.533Z,25.44
2022-08-28T21:17:29.515Z,25.47
2022-08-28T21:19:53.603Z,25.46
2022-08-28T21:22:26.183Z,25.45
2022-08-28T21:25:04.290Z,25.46
2022-08-28T21:27:33.682Z,25.46
2022-08-28T21:32:51.151Z,25.49
2022-08-28T21:35:25.730Z,25.50
2022-08-28T21:37:55.555Z,25.48
2022-08-28T21:40:25.758Z,25.49
2022-08-28T21:42:57.907Z,25.50
2022-08-28T21:45:28.160Z,25.52
2022-08-28T21:47:58.576Z,25.52
2022-08-28T21:50:29.650Z,25.54
2022-08-28T21:53:00.520Z,25.54
2022-08-28T21:55:30.619Z,25.54
2022-08-28T21:58:00.617Z,25.56
2022-08-28T22:00:31.158Z,25.57
2022-08-28T22:03:01.808Z,25.57
2022-08-28T22:05:31.608Z,25.57
2022-08-28T22:08:01.941Z,25.58
2022-08-28T22:10:34.090Z,25.48
2022-08-28T22:13:04.201Z,25.48
2022-08-28T22:15:34.213Z,25.59
2022-08-28T22:18:05.286Z,25.61
2022-08-28T22:20:35.679Z,25.60
2022-08-28T22:23:11.544Z,25.60
2022-08-28T22:25:45.410Z,25.62
2022-08-28T22:28:15.277Z,25.61
2022-08-28T22:30:44.983Z,25.62
2022-08-28T22:33:16.271Z,25.61
2022-08-28T22:35:46.067Z,25.61
2022-08-28T22:38:15.973Z,25.62
2022-08-28T22:40:45.831Z,25.64
2022-08-28T22:43:16.939Z,25.64
2022-08-28T22:45:48.130Z,25.64
2022-08-28T22:48:21.362Z,25.67
2022-08-28T22:50:50.919Z,25.67
2022-08-28T22:53:20.511Z,25.67
2022-08-28T22:55:50.243Z,25.67
2022-08-28T22:58:19.839Z,25.68
2022-08-28T23:00:49.775Z,25.69
2022-08-28T23:03:19.553Z,25.69
2022-08-28T23:05:49.429Z,25.70
2022-08-28T23:08:19.233Z,25.70
2022-08-28T23:10:59.092Z,25.71
2022-08-28T23:13:20.834Z,25.71
2022-08-28T23:15:50.627Z,25.71
2022-08-28T23:18:20.626Z,25.72
2022-08-28T23:20:51.428Z,25.72
2022-08-28T23:23:23.795Z,25.73
2022-08-28T23:25:53.659Z,25.73
2022-08-28T23:28:23.269Z,25.73
2022-08-28T23:30:54.282Z,25.72
2022-08-28T23:33:24.265Z,25.70
2022-08-28T23:35:54.289Z,25.69
2022-08-28T23:38:23.801Z,25.70
2022-08-28T23:40:53.495Z,25.72
2022-08-28T23:43:23.213Z,25.72
2022-08-28T23:45:52.983Z,25.73
2022-08-28T23:48:25.083Z,25.73
2022-08-28T23:50:55.305Z,25.73
2022-08-28T23:53:25.635Z,25.75
2022-08-28T23:55:56.018Z,25.74
2022-08-28T23:58:26.017Z,25.74
